エドモントン の空港の天気 - METARとTAF

エドモントン国際空港 ( CYEG / YEG ) - カナダ アルバータ州Edmonton Capital Region
飛行場実況気象(Metar)
観測時間10/21 10:09 MDT (10/21 16:09 UTC)
風向・風速北北西 8m/s
視程4850m
天気現象弱い雪
全天の8割程度の雲 雲底高度 400m
全天を覆う雲 雲底高度 1520m
気温-5℃
湿度93%
気圧1024.7hPa
METARCYEG 211609Z 34015KT 3SM -SN BKN013 OVC050 M05/M06 A3014 RMK SC7SC1 SLP247
過去の天気等 Google飛行場航空写真 Wunderground天気予報

過去48時間のMETAR

飛行場予報(TAF)
発表時間: 10/21 08:38 MDT (10/21 14:38 UTC)
予報対象時間: 21日9時 MDT ~ 22日6時 MDT
風向・風速北 5m/s
視程10km以上
天気現象弱い雪
全天の4割程度の雲 雲底高度 460m
全天を覆う雲 雲底高度 1520m
21日9時 MDT ~ 21日13時 MDT に一時的に
視程3220m
天気現象弱い雪
全天の8割程度の雲 雲底高度 370m
全天を覆う雲 雲底高度 910m
21日13時 MDT から
風向・風速北北西 6m/s
視程10km以上
全天の8割程度の雲 雲底高度 910m
全天を覆う雲 雲底高度 2740m
21日13時 MDT ~ 21日21時 MDT に一時的に
視程10km以上
天気現象弱い雪
全天の8割程度の雲 雲底高度 610m
全天を覆う雲 雲底高度 1830m
21日21時 MDT から
風向・風速北北西 4m/s
視程10km以上
全天の8割程度の雲 雲底高度 910m
全天の8割程度の雲 雲底高度 1830m
21日21時 MDT ~ 22日6時 MDT に一時的に
視程8050m
天気現象弱い雪
全天の8割程度の雲 雲底高度 460m
全天を覆う雲 雲底高度 910m
TAF CYEG 211438Z 2115/2212 35010KT 6SM -SN SCT015 OVC050
TEMPO 2115/2119 2SM -SN BKN012 OVC030
FM211900 34012KT P6SM BKN030 OVC090
TEMPO 2119/2203 P6SM -SN BKN020 OVC060
FM220300 33008KT P6SM BKN030 BKN060
TEMPO 2203/2212 5SM -SN BKN015 OVC030 RMK NXT FCST BY 211800Z